createdAt,value
2019-02-12T00:00:17.381Z,3.00
2019-02-12T00:02:45.647Z,2.80
2019-02-12T00:05:12.660Z,2.80
2019-02-12T00:07:39.112Z,2.80
2019-02-12T00:10:05.645Z,2.80
2019-02-12T00:12:32.248Z,2.70
2019-02-12T00:14:58.866Z,2.90
2019-02-12T00:17:25.238Z,2.80
2019-02-12T00:19:51.572Z,2.90
2019-02-12T00:22:18.127Z,2.80
2019-02-12T00:24:44.728Z,2.80
2019-02-12T00:27:11.302Z,2.90
2019-02-12T00:29:37.634Z,2.80
2019-02-12T00:32:03.980Z,2.80
2019-02-12T00:34:30.308Z,2.80
2019-02-12T00:36:56.916Z,2.70
2019-02-12T00:39:23.233Z,2.80
2019-02-12T00:41:49.596Z,2.70
2019-02-12T00:44:16.915Z,2.60
2019-02-12T00:46:43.288Z,2.60
2019-02-12T00:49:09.835Z,2.60
2019-02-12T00:51:36.160Z,2.50
2019-02-12T00:54:02.764Z,2.50
2019-02-12T00:56:29.359Z,2.60
2019-02-12T00:58:55.686Z,2.70
2019-02-12T01:01:22.039Z,2.70
2019-02-12T01:03:48.361Z,2.70
2019-02-12T01:06:14.680Z,2.60
2019-02-12T01:08:42.011Z,2.50
2019-02-12T01:11:08.560Z,2.50
2019-02-12T01:13:36.166Z,2.40
2019-02-12T01:16:02.566Z,2.50
2019-02-12T01:18:29.180Z,2.50
2019-02-12T01:20:55.753Z,2.60
2019-02-12T01:23:22.308Z,2.60
2019-02-12T01:25:48.654Z,2.80
2019-02-12T01:28:14.999Z,2.70
2019-02-12T01:30:41.358Z,2.80
2019-02-12T01:33:07.651Z,2.80
2019-02-12T01:35:34.270Z,2.80
2019-02-12T01:38:00.563Z,2.80
2019-02-12T01:40:26.930Z,2.70
2019-02-12T01:42:53.257Z,2.80
2019-02-12T01:45:19.607Z,2.70
2019-02-12T01:47:46.264Z,2.80
2019-02-12T01:50:12.734Z,2.80
2019-02-12T01:52:39.064Z,2.70
2019-02-12T01:55:05.458Z,2.70
2019-02-12T01:57:32.059Z,2.80
2019-02-12T01:59:58.353Z,2.90
2019-02-12T02:02:24.705Z,2.90
2019-02-12T02:04:51.255Z,2.90
2019-02-12T02:07:17.841Z,2.80
2019-02-12T02:09:44.162Z,2.70
2019-02-12T02:12:10.618Z,2.80
2019-02-12T02:14:37.224Z,2.80
2019-02-12T02:17:03.523Z,2.70
2019-02-12T02:19:29.862Z,2.90
2019-02-12T02:21:56.478Z,2.90
2019-02-12T02:24:22.819Z,2.90
2019-02-12T02:26:49.431Z,2.90
2019-02-12T02:29:16.082Z,3.00
2019-02-12T02:31:42.677Z,2.90
2019-02-12T02:34:09.032Z,2.90
2019-02-12T02:36:35.358Z,3.00
2019-02-12T02:39:01.793Z,3.00
2019-02-12T02:41:30.043Z,3.00
2019-02-12T02:43:56.357Z,2.90
2019-02-12T02:46:22.713Z,3.00
2019-02-12T02:48:49.278Z,3.00
2019-02-12T02:51:15.635Z,3.00
2019-02-12T02:53:41.957Z,3.00
2019-02-12T02:56:08.607Z,3.00
2019-02-12T02:58:34.922Z,3.10
2019-02-12T03:01:01.228Z,3.00
2019-02-12T03:03:27.784Z,3.10
2019-02-12T03:05:54.378Z,2.90
2019-02-12T03:08:20.712Z,2.90
2019-02-12T03:10:47.046Z,2.70
2019-02-12T03:13:13.370Z,2.70
2019-02-12T03:15:39.693Z,2.80
2019-02-12T03:18:06.338Z,2.70
2019-02-12T03:20:32.939Z,2.80
2019-02-12T03:22:59.586Z,2.80
2019-02-12T03:25:25.937Z,2.80
2019-02-12T03:27:52.252Z,2.60
2019-02-12T03:30:18.595Z,2.50
2019-02-12T03:32:45.191Z,2.50
2019-02-12T03:35:11.612Z,2.50
2019-02-12T03:37:38.961Z,2.50
2019-02-12T03:40:09.241Z,2.40
2019-02-12T03:42:35.887Z,2.50
2019-02-12T03:45:05.582Z,2.60
2019-02-12T03:47:32.239Z,2.60
2019-02-12T03:49:58.812Z,2.70
2019-02-12T03:52:25.205Z,2.70
2019-02-12T03:54:51.775Z,2.70
2019-02-12T03:57:18.245Z,2.80
2019-02-12T03:59:44.569Z,2.80
2019-02-12T04:02:10.928Z,2.80
2019-02-12T04:04:37.246Z,2.60
2019-02-12T04:07:03.867Z,2.60
2019-02-12T04:09:30.479Z,2.50
2019-02-12T04:11:56.774Z,2.40
2019-02-12T04:14:23.109Z,2.30
2019-02-12T04:16:49.434Z,2.30
2019-02-12T04:19:15.871Z,2.40
2019-02-12T04:21:42.237Z,2.30
2019-02-12T04:24:08.566Z,2.20
2019-02-12T04:26:34.864Z,2.20
2019-02-12T04:29:01.291Z,2.10
2019-02-12T04:31:27.708Z,2.10
2019-02-12T04:33:54.038Z,2.00
2019-02-12T04:36:20.353Z,1.90
2019-02-12T04:38:46.665Z,2.00
2019-02-12T04:41:12.986Z,2.00
2019-02-12T04:43:39.335Z,2.00
2019-02-12T04:46:05.659Z,1.90
2019-02-12T04:48:32.296Z,1.90
2019-02-12T04:50:58.922Z,2.00
2019-02-12T04:53:25.557Z,2.10
2019-02-12T04:55:51.957Z,2.20
2019-02-12T04:58:18.292Z,2.20
2019-02-12T05:00:44.659Z,2.30
2019-02-12T05:03:11.006Z,2.40
2019-02-12T05:05:37.617Z,2.40
2019-02-12T05:08:04.215Z,2.50
2019-02-12T05:10:39.427Z,2.50
2019-02-12T05:13:05.826Z,2.50
2019-02-12T05:15:32.169Z,2.60
2019-02-12T05:17:58.523Z,2.70
2019-02-12T05:20:24.862Z,2.60
2019-02-12T05:22:51.485Z,2.60
2019-02-12T05:25:17.873Z,2.60
2019-02-12T05:27:44.358Z,2.50
2019-02-12T05:30:12.790Z,2.50
2019-02-12T05:32:39.125Z,2.60
2019-02-12T05:35:05.933Z,2.50
2019-02-12T05:37:32.540Z,2.60
2019-02-12T05:39:59.961Z,2.50
2019-02-12T05:42:26.572Z,2.50
2019-02-12T05:44:52.928Z,2.60
2019-02-12T05:47:19.272Z,2.60
2019-02-12T05:49:45.620Z,2.60
2019-02-12T05:52:11.944Z,2.60
2019-02-12T05:54:38.302Z,2.50
2019-02-12T05:57:04.885Z,2.50
2019-02-12T05:59:31.282Z,2.50
2019-02-12T06:01:57.642Z,2.50
2019-02-12T06:04:23.987Z,2.50
2019-02-12T06:06:50.376Z,2.50
2019-02-12T06:09:17.069Z,2.50
2019-02-12T06:11:43.534Z,2.50
2019-02-12T06:14:09.900Z,2.60
2019-02-12T06:16:36.237Z,2.60
2019-02-12T06:19:02.605Z,2.60
2019-02-12T06:21:28.908Z,2.40
2019-02-12T06:23:55.298Z,2.50
2019-02-12T06:26:22.595Z,2.40
2019-02-12T06:28:48.953Z,2.40
2019-02-12T06:31:15.300Z,2.50
2019-02-12T06:33:41.925Z,2.50
2019-02-12T06:36:08.241Z,2.40
2019-02-12T06:38:34.879Z,2.50
2019-02-12T06:41:01.532Z,2.50
2019-02-12T06:43:27.904Z,2.60
2019-02-12T06:45:54.250Z,2.70
2019-02-12T06:48:20.572Z,2.80
2019-02-12T06:50:47.143Z,2.80
2019-02-12T06:53:13.717Z,2.80
2019-02-12T06:55:40.274Z,2.90
2019-02-12T06:58:06.870Z,2.90
2019-02-12T07:00:33.208Z,2.80
2019-02-12T07:03:14.716Z,2.80
2019-02-12T07:06:04.608Z,2.80
2019-02-12T07:08:59.970Z,2.90
2019-02-12T07:11:41.318Z,2.90
2019-02-12T07:14:13.414Z,2.90
2019-02-12T07:17:12.249Z,2.90
2019-02-12T07:20:02.112Z,3.00
2019-02-12T07:22:56.363Z,3.10
2019-02-12T07:25:49.391Z,3.10
2019-02-12T07:28:59.867Z,3.20
2019-02-12T07:31:44.191Z,3.10
2019-02-12T07:34:38.909Z,3.10
2019-02-12T07:37:13.987Z,3.10
2019-02-12T07:40:21.316Z,3.10
2019-02-12T07:43:02.405Z,3.10
2019-02-12T07:45:37.202Z,3.10
2019-02-12T07:48:36.746Z,3.10
2019-02-12T07:51:34.587Z,3.00
2019-02-12T07:54:12.291Z,3.00
2019-02-12T07:56:59.744Z,3.10
2019-02-12T07:59:46.677Z,3.00
2019-02-12T08:02:30.795Z,3.10
2019-02-12T08:05:27.257Z,3.10
2019-02-12T08:08:31.371Z,3.20
2019-02-12T08:11:06.165Z,3.10
2019-02-12T08:14:15.830Z,3.30
2019-02-12T08:17:05.740Z,3.30
2019-02-12T08:19:55.066Z,3.20
2019-02-12T08:22:32.373Z,3.30
2019-02-12T08:25:34.391Z,3.20
2019-02-12T08:28:24.390Z,3.30
2019-02-12T08:31:05.019Z,3.40
2019-02-12T08:33:37.033Z,3.40
2019-02-12T08:36:20.225Z,3.20
2019-02-12T08:39:04.050Z,3.40
2019-02-12T08:41:40.178Z,3.60
2019-02-12T08:44:38.660Z,3.70
2019-02-12T08:47:37.216Z,3.50
2019-02-12T08:50:20.087Z,3.50
2019-02-12T08:53:32.989Z,3.50
2019-02-12T08:56:33.465Z,3.50
2019-02-12T08:59:13.898Z,3.60
2019-02-12T09:01:48.688Z,3.80
2019-02-12T09:04:38.832Z,3.70
2019-02-12T09:07:28.813Z,3.40
2019-02-12T09:10:25.296Z,3.40
2019-02-12T09:13:00.614Z,3.50
2019-02-12T09:15:44.552Z,3.70
2019-02-12T09:18:36.039Z,3.70
2019-02-12T09:21:13.959Z,3.60
2019-02-12T09:24:10.221Z,3.70
2019-02-12T09:26:44.830Z,3.80
2019-02-12T09:29:37.397Z,3.80
2019-02-12T09:32:38.074Z,3.90
2019-02-12T09:35:36.965Z,3.60
2019-02-12T09:38:43.545Z,3.80
2019-02-12T09:41:31.409Z,3.90
2019-02-12T09:44:18.313Z,4.00
2019-02-12T09:47:41.098Z,4.20
2019-02-12T09:50:35.575Z,4.20
2019-02-12T09:53:35.090Z,4.40
2019-02-12T09:56:26.412Z,4.50
2019-02-12T09:59:24.258Z,4.30
2019-02-12T10:02:23.504Z,4.50
2019-02-12T10:05:31.300Z,4.40
2019-02-12T10:08:34.311Z,4.40
2019-02-12T10:11:30.099Z,4.40
2019-02-12T10:14:20.427Z,4.70
2019-02-12T10:17:14.099Z,4.70
2019-02-12T10:19:46.137Z,4.60
2019-02-12T10:22:39.132Z,5.00
2019-02-12T10:25:14.151Z,5.10
2019-02-12T10:28:08.628Z,4.60
2019-02-12T10:30:49.266Z,4.50
2019-02-12T10:33:16.065Z,4.50
2019-02-12T10:35:42.438Z,4.90
2019-02-12T10:38:08.770Z,4.60
2019-02-12T10:40:35.115Z,4.70
2019-02-12T10:43:01.726Z,4.60
2019-02-12T10:45:28.311Z,4.50
2019-02-12T10:47:54.824Z,4.60
2019-02-12T10:50:21.454Z,4.80
2019-02-12T10:52:48.036Z,4.40
2019-02-12T10:55:14.488Z,4.60
2019-02-12T10:57:41.085Z,4.50
2019-02-12T11:00:13.900Z,4.60
2019-02-12T11:02:40.441Z,4.60
2019-02-12T11:05:07.178Z,4.60
2019-02-12T11:07:33.773Z,4.40
2019-02-12T11:10:00.120Z,4.80
2019-02-12T11:12:26.532Z,5.20
2019-02-12T11:14:52.844Z,5.10
2019-02-12T11:17:19.440Z,4.70
2019-02-12T11:19:46.023Z,4.80
2019-02-12T11:22:12.330Z,5.00
2019-02-12T11:24:39.823Z,5.10
2019-02-12T11:27:06.357Z,5.00
2019-02-12T11:29:32.985Z,5.10
2019-02-12T11:31:59.544Z,5.50
2019-02-12T11:34:26.167Z,5.70
2019-02-12T11:36:52.535Z,5.60
2019-02-12T11:39:18.932Z,5.50
2019-02-12T11:41:45.221Z,5.50
2019-02-12T11:44:11.541Z,5.20
2019-02-12T11:46:38.172Z,5.00
2019-02-12T11:49:04.503Z,5.00
2019-02-12T11:51:31.100Z,4.90
2019-02-12T11:53:57.417Z,4.70
2019-02-12T11:56:23.925Z,4.70
2019-02-12T11:58:50.503Z,4.50
2019-02-12T12:01:18.131Z,4.10
2019-02-12T12:03:44.741Z,3.90
2019-02-12T12:06:11.310Z,3.80
2019-02-12T12:08:37.664Z,3.80
2019-02-12T12:11:04.238Z,3.80
2019-02-12T12:13:31.846Z,3.80
2019-02-12T12:15:58.550Z,4.00
2019-02-12T12:18:26.150Z,4.20
2019-02-12T12:20:52.717Z,4.30
2019-02-12T12:23:19.014Z,4.20
2019-02-12T12:25:45.625Z,4.30
2019-02-12T12:28:11.988Z,4.20
2019-02-12T12:30:39.418Z,4.20
2019-02-12T12:33:05.938Z,4.00
2019-02-12T12:35:32.330Z,4.10
2019-02-12T12:37:58.927Z,4.20
2019-02-12T12:40:25.321Z,4.30
2019-02-12T12:42:51.640Z,4.40
2019-02-12T12:45:18.242Z,4.50
2019-02-12T12:47:44.603Z,4.40
2019-02-12T12:50:12.100Z,4.20
2019-02-12T12:52:38.495Z,4.00
2019-02-12T12:55:07.379Z,4.20
2019-02-12T12:57:41.359Z,4.50
2019-02-12T13:00:06.476Z,4.60
2019-02-12T13:02:34.623Z,4.80
2019-02-12T13:05:02.688Z,4.90
2019-02-12T13:07:29.258Z,4.90
2019-02-12T13:09:55.861Z,4.80
2019-02-12T13:12:22.433Z,4.60
2019-02-12T13:14:49.072Z,4.50
2019-02-12T13:17:15.450Z,4.40
2019-02-12T13:19:41.773Z,4.00
2019-02-12T13:22:08.406Z,4.10
2019-02-12T13:24:34.997Z,4.10
2019-02-12T13:27:01.370Z,4.00
2019-02-12T13:29:27.691Z,4.00
2019-02-12T13:31:54.283Z,4.00
2019-02-12T13:34:20.632Z,4.10
2019-02-12T13:36:47.146Z,4.20
2019-02-12T13:39:13.473Z,4.20
2019-02-12T13:41:40.090Z,4.20
2019-02-12T13:44:06.676Z,4.10
2019-02-12T13:46:33.032Z,4.20
2019-02-12T13:48:59.417Z,4.30
2019-02-12T13:51:25.799Z,4.30
2019-02-12T13:53:52.208Z,4.50
2019-02-12T13:56:18.660Z,4.40
2019-02-12T13:58:45.338Z,4.60
2019-02-12T14:01:11.719Z,4.70
2019-02-12T14:03:38.249Z,4.80
2019-02-12T14:06:04.628Z,4.90
2019-02-12T14:08:31.296Z,4.90
2019-02-12T14:10:57.607Z,5.00
2019-02-12T14:13:24.253Z,5.00
2019-02-12T14:15:50.876Z,5.10
2019-02-12T14:18:17.518Z,5.10
2019-02-12T14:20:44.078Z,5.20
2019-02-12T14:23:10.680Z,5.40
2019-02-12T14:25:37.315Z,5.40
2019-02-12T14:28:04.009Z,5.20
2019-02-12T14:30:30.366Z,5.30
2019-02-12T14:32:57.032Z,5.20
2019-02-12T14:35:23.371Z,5.20
2019-02-12T14:37:49.969Z,5.20
2019-02-12T14:40:16.573Z,5.20
2019-02-12T14:42:43.201Z,5.20
2019-02-12T14:45:17.225Z,5.30
2019-02-12T14:47:43.874Z,5.30
2019-02-12T14:50:19.222Z,5.50
2019-02-12T14:52:45.989Z,5.40
2019-02-12T14:55:12.707Z,5.40
2019-02-12T14:57:39.064Z,5.60
2019-02-12T15:00:12.505Z,5.60
2019-02-12T15:02:39.070Z,5.60
2019-02-12T15:05:06.530Z,5.40
2019-02-12T15:07:32.853Z,5.30
2019-02-12T15:09:59.464Z,5.40
2019-02-12T15:12:25.778Z,5.50
2019-02-12T15:14:52.127Z,5.70
2019-02-12T15:17:18.469Z,6.20
2019-02-12T15:19:45.094Z,6.20
2019-02-12T15:22:11.438Z,5.50
2019-02-12T15:24:38.030Z,5.40
2019-02-12T15:27:04.564Z,5.40
2019-02-12T15:29:31.023Z,5.10
2019-02-12T15:31:57.405Z,4.70
2019-02-12T15:34:24.108Z,4.60
2019-02-12T15:36:50.484Z,4.50
2019-02-12T15:39:17.068Z,4.20
2019-02-12T15:41:43.413Z,4.20
2019-02-12T15:44:09.783Z,4.00
2019-02-12T15:46:36.372Z,4.00
2019-02-12T15:49:03.052Z,4.00
2019-02-12T15:51:29.414Z,3.90
2019-02-12T15:53:55.756Z,3.90
2019-02-12T15:56:22.349Z,3.80
2019-02-12T15:58:49.681Z,3.80
2019-02-12T16:01:16.528Z,3.80
2019-02-12T16:03:43.166Z,3.80
2019-02-12T16:06:09.491Z,3.80
2019-02-12T16:08:35.850Z,3.70
2019-02-12T16:11:02.182Z,3.70
2019-02-12T16:13:29.587Z,3.70
2019-02-12T16:15:56.176Z,3.60
2019-02-12T16:18:23.003Z,3.60
2019-02-12T16:20:50.876Z,3.60
2019-02-12T16:23:17.382Z,3.60
2019-02-12T16:25:44.036Z,3.60
2019-02-12T16:28:10.619Z,3.60
2019-02-12T16:30:37.233Z,3.60
2019-02-12T16:33:03.819Z,3.60
2019-02-12T16:35:30.433Z,3.50
2019-02-12T16:37:56.769Z,3.50
2019-02-12T16:40:23.449Z,3.50
2019-02-12T16:42:50.112Z,3.50
2019-02-12T16:45:28.294Z,3.40
2019-02-12T16:47:54.640Z,3.50
2019-02-12T16:50:21.231Z,3.40
2019-02-12T16:52:47.825Z,3.40
2019-02-12T16:55:14.554Z,3.30
2019-02-12T16:57:41.183Z,3.30
2019-02-12T17:00:14.183Z,3.20
2019-02-12T17:02:40.757Z,3.20
2019-02-12T17:05:10.433Z,3.10
2019-02-12T17:07:36.892Z,3.10
2019-02-12T17:10:07.617Z,3.00
2019-02-12T17:12:34.015Z,3.00
2019-02-12T17:15:00.686Z,2.90
2019-02-12T17:17:27.356Z,2.90
2019-02-12T17:19:53.975Z,2.90
2019-02-12T17:22:20.450Z,2.90
2019-02-12T17:24:47.022Z,2.90
2019-02-12T17:27:13.720Z,3.00
2019-02-12T17:29:40.440Z,3.00
2019-02-12T17:32:07.107Z,3.00
2019-02-12T17:34:34.823Z,3.00
2019-02-12T17:37:01.183Z,3.00
2019-02-12T17:39:27.534Z,3.10
2019-02-12T17:41:53.901Z,3.10
2019-02-12T17:44:20.484Z,3.20
2019-02-12T17:46:47.158Z,3.20
2019-02-12T17:49:13.808Z,3.20
2019-02-12T17:51:40.543Z,3.20
2019-02-12T17:54:06.912Z,3.30
2019-02-12T17:56:33.576Z,3.40
2019-02-12T17:59:00.221Z,3.30
2019-02-12T18:01:26.850Z,3.30
2019-02-12T18:03:53.506Z,3.30
2019-02-12T18:06:19.875Z,3.40
2019-02-12T18:08:46.528Z,3.30
2019-02-12T18:11:12.987Z,3.40
2019-02-12T18:13:40.411Z,3.40
2019-02-12T18:16:06.883Z,3.40
2019-02-12T18:18:33.226Z,3.40
2019-02-12T18:20:59.618Z,3.40
2019-02-12T18:23:25.967Z,3.40
2019-02-12T18:25:52.602Z,3.50
2019-02-12T18:28:19.164Z,3.40
2019-02-12T18:30:45.786Z,3.50
2019-02-12T18:33:12.430Z,3.40
2019-02-12T18:35:40.372Z,3.40
2019-02-12T18:38:08.392Z,3.30
2019-02-12T18:40:34.709Z,3.30
2019-02-12T18:43:01.303Z,3.30
2019-02-12T18:45:27.896Z,3.30
2019-02-12T18:47:54.484Z,3.30
2019-02-12T18:50:20.856Z,3.30
2019-02-12T18:52:47.301Z,3.40
2019-02-12T18:55:15.507Z,3.40
2019-02-12T18:57:42.528Z,3.50
2019-02-12T19:00:13.065Z,3.60
2019-02-12T19:02:40.186Z,3.60
2019-02-12T19:05:09.092Z,3.50
2019-02-12T19:07:36.043Z,3.60
2019-02-12T19:10:07.589Z,3.60
2019-02-12T19:12:34.565Z,3.70
2019-02-12T19:15:01.046Z,3.60
2019-02-12T19:17:27.631Z,3.60
2019-02-12T19:19:54.244Z,3.60
2019-02-12T19:22:20.917Z,3.60
2019-02-12T19:24:47.388Z,3.70
2019-02-12T19:27:13.718Z,3.70
2019-02-12T19:29:40.129Z,3.80
2019-02-12T19:32:06.467Z,3.80
2019-02-12T19:34:32.852Z,3.90
2019-02-12T19:36:59.213Z,3.90
2019-02-12T19:39:25.681Z,3.80
2019-02-12T19:41:52.392Z,4.00
2019-02-12T19:44:19.022Z,4.00
2019-02-12T19:46:45.471Z,4.00
2019-02-12T19:49:12.042Z,4.00
2019-02-12T19:51:38.387Z,3.90
2019-02-12T19:54:04.884Z,3.90
2019-02-12T19:56:31.571Z,4.00
2019-02-12T19:58:58.015Z,4.10
2019-02-12T20:01:24.475Z,4.10
2019-02-12T20:03:51.156Z,4.00
2019-02-12T20:06:17.814Z,3.90
2019-02-12T20:08:44.208Z,4.00
2019-02-12T20:11:10.612Z,4.00
2019-02-12T20:13:37.281Z,3.90
2019-02-12T20:16:03.748Z,3.90
2019-02-12T20:18:31.407Z,3.90
2019-02-12T20:20:57.832Z,3.90
2019-02-12T20:23:24.701Z,3.90
2019-02-12T20:25:52.166Z,3.80
2019-02-12T20:28:18.954Z,3.80
2019-02-12T20:30:45.708Z,3.80
2019-02-12T20:33:12.121Z,3.80
2019-02-12T20:35:38.726Z,3.70
2019-02-12T20:38:05.149Z,3.70
2019-02-12T20:40:31.881Z,3.80
2019-02-12T20:42:58.344Z,3.70
2019-02-12T20:45:24.728Z,3.70
2019-02-12T20:47:51.270Z,3.70
2019-02-12T20:50:19.910Z,3.70
2019-02-12T20:52:46.590Z,3.70
2019-02-12T20:55:13.032Z,3.70
2019-02-12T20:57:39.378Z,3.50
2019-02-12T21:00:12.578Z,3.70
2019-02-12T21:02:39.009Z,3.70
2019-02-12T21:05:09.417Z,3.70
2019-02-12T21:07:36.064Z,3.60
2019-02-12T21:10:08.711Z,3.70
2019-02-12T21:12:35.412Z,3.60
2019-02-12T21:15:04.821Z,3.70
2019-02-12T21:17:31.554Z,3.70
2019-02-12T21:19:58.957Z,3.70
2019-02-12T21:22:25.812Z,3.70
2019-02-12T21:24:52.607Z,3.60
2019-02-12T21:27:23.593Z,3.70
2019-02-12T21:29:47.987Z,3.70
2019-02-12T21:32:14.640Z,3.70
2019-02-12T21:34:41.480Z,3.60
2019-02-12T21:37:07.779Z,3.60
2019-02-12T21:39:35.016Z,3.60
2019-02-12T21:42:01.325Z,3.50
2019-02-12T21:44:30.773Z,3.50
2019-02-12T21:46:57.991Z,3.40
2019-02-12T21:49:24.582Z,3.40
2019-02-12T21:51:51.161Z,3.50
2019-02-12T21:54:18.268Z,3.50
2019-02-12T21:56:46.555Z,3.50
2019-02-12T21:59:12.962Z,3.50
2019-02-12T22:01:39.838Z,3.50
2019-02-12T22:04:06.481Z,3.50
2019-02-12T22:06:33.150Z,3.50
2019-02-12T22:08:59.785Z,3.60
2019-02-12T22:11:29.835Z,3.60
2019-02-12T22:13:56.445Z,3.50
2019-02-12T22:16:23.904Z,3.60
2019-02-12T22:18:50.238Z,3.60
2019-02-12T22:21:17.049Z,3.60
2019-02-12T22:23:43.377Z,3.60
2019-02-12T22:26:09.765Z,3.70
2019-02-12T22:28:36.063Z,3.70
2019-02-12T22:31:02.663Z,3.70
2019-02-12T22:33:29.047Z,3.70
2019-02-12T22:35:55.618Z,3.80
2019-02-12T22:38:21.911Z,3.80
2019-02-12T22:40:48.221Z,3.80
2019-02-12T22:43:14.797Z,3.90
2019-02-12T22:45:41.162Z,3.90
2019-02-12T22:48:07.467Z,3.90
2019-02-12T22:50:34.037Z,3.90
2019-02-12T22:53:00.344Z,4.00
2019-02-12T22:55:26.921Z,4.00
2019-02-12T22:57:53.320Z,4.00
2019-02-12T23:00:27.298Z,3.90
2019-02-12T23:02:55.605Z,4.00
2019-02-12T23:05:22.278Z,4.00
2019-02-12T23:07:48.735Z,4.00
2019-02-12T23:10:15.382Z,4.00
2019-02-12T23:12:41.934Z,4.00
2019-02-12T23:15:08.354Z,4.10
2019-02-12T23:17:34.655Z,4.00
2019-02-12T23:20:01.284Z,4.10
2019-02-12T23:22:29.089Z,4.10
2019-02-12T23:24:55.668Z,4.00
2019-02-12T23:27:22.239Z,4.00
2019-02-12T23:29:48.804Z,4.00
2019-02-12T23:32:15.405Z,4.00
2019-02-12T23:34:42.291Z,4.10
2019-02-12T23:37:08.873Z,4.10
2019-02-12T23:39:35.456Z,4.10
2019-02-12T23:42:01.820Z,4.20
2019-02-12T23:44:28.154Z,4.30
2019-02-12T23:46:54.710Z,4.20
2019-02-12T23:49:21.269Z,4.30
2019-02-12T23:51:47.592Z,4.20
2019-02-12T23:54:14.176Z,4.20
2019-02-12T23:56:40.518Z,4.20
2019-02-12T23:59:07.182Z,4.30
